sensor_id;sensor_type;location;lat;lon;timestamp;P1;durP1;ratioP1;P2;durP2;ratioP2
35418;SDS011;21525;41.240;16.500;2024-03-23T00:51:52;14.73;;;10.50;;
35418;SDS011;21525;41.240;16.500;2024-03-23T00:54:18;16.42;;;10.80;;
35418;SDS011;21525;41.240;16.500;2024-03-23T00:56:44;15.90;;;11.18;;
35418;SDS011;21525;41.240;16.500;2024-03-23T00:59:10;16.17;;;11.40;;
35418;SDS011;21525;41.240;16.500;2024-03-23T01:01:37;18.50;;;11.10;;
35418;SDS011;21525;41.240;16.500;2024-03-23T01:04:02;15.30;;;10.55;;
35418;SDS011;21525;41.240;16.500;2024-03-23T01:06:28;17.92;;;10.75;;
35418;SDS011;21525;41.240;16.500;2024-03-23T01:08:54;17.98;;;10.73;;
35418;SDS011;21525;41.240;16.500;2024-03-23T01:11:20;17.77;;;12.18;;
35418;SDS011;21525;41.240;16.500;2024-03-23T01:13:46;14.10;;;10.82;;
35418;SDS011;21525;41.240;16.500;2024-03-23T01:16:11;15.43;;;10.77;;
35418;SDS011;21525;41.240;16.500;2024-03-23T01:18:37;17.83;;;10.63;;
35418;SDS011;21525;41.240;16.500;2024-03-23T01:21:03;14.57;;;11.05;;
35418;SDS011;21525;41.240;16.500;2024-03-23T01:23:29;16.08;;;10.60;;
35418;SDS011;21525;41.240;16.500;2024-03-23T01:25:55;16.02;;;11.00;;
35418;SDS011;21525;41.240;16.500;2024-03-23T01:28:21;15.85;;;10.93;;
35418;SDS011;21525;41.240;16.500;2024-03-23T01:30:47;14.65;;;10.75;;
35418;SDS011;21525;41.240;16.500;2024-03-23T01:33:13;17.27;;;10.20;;
35418;SDS011;21525;41.240;16.500;2024-03-23T01:35:39;15.15;;;10.98;;
35418;SDS011;21525;41.240;16.500;2024-03-23T01:38:06;16.55;;;10.50;;
35418;SDS011;21525;41.240;16.500;2024-03-23T01:40:32;15.38;;;10.40;;
35418;SDS011;21525;41.240;16.500;2024-03-23T01:42:58;16.42;;;9.95;;
35418;SDS011;21525;41.240;16.500;2024-03-23T01:45:27;16.45;;;10.48;;
35418;SDS011;21525;41.240;16.500;2024-03-23T01:47:53;14.68;;;10.20;;
35418;SDS011;21525;41.240;16.500;2024-03-23T01:50:19;13.60;;;10.52;;
35418;SDS011;21525;41.240;16.500;2024-03-23T01:52:46;14.55;;;10.52;;
35418;SDS011;21525;41.240;16.500;2024-03-23T01:55:13;14.13;;;10.77;;
35418;SDS011;21525;41.240;16.500;2024-03-23T01:57:39;17.42;;;11.00;;
35418;SDS011;21525;41.240;16.500;2024-03-23T02:00:05;16.30;;;10.02;;
35418;SDS011;21525;41.240;16.500;2024-03-23T02:02:55;16.13;;;11.23;;
35418;SDS011;21525;41.240;16.500;2024-03-23T02:05:21;13.63;;;10.05;;
35418;SDS011;21525;41.240;16.500;2024-03-23T02:07:47;12.90;;;10.18;;
35418;SDS011;21525;41.240;16.500;2024-03-23T02:10:13;13.55;;;9.32;;
35418;SDS011;21525;41.240;16.500;2024-03-23T02:12:39;15.60;;;10.23;;
35418;SDS011;21525;41.240;16.500;2024-03-23T02:15:05;15.25;;;10.82;;
35418;SDS011;21525;41.240;16.500;2024-03-23T02:17:33;14.13;;;9.90;;
35418;SDS011;21525;41.240;16.500;2024-03-23T02:20:00;14.70;;;10.40;;
35418;SDS011;21525;41.240;16.500;2024-03-23T02:22:36;15.48;;;10.57;;
35418;SDS011;21525;41.240;16.500;2024-03-23T02:25:03;14.75;;;10.23;;
35418;SDS011;21525;41.240;16.500;2024-03-23T02:27:30;15.35;;;10.35;;
35418;SDS011;21525;41.240;16.500;2024-03-23T02:29:55;15.70;;;9.73;;
35418;SDS011;21525;41.240;16.500;2024-03-23T02:32:21;14.85;;;10.07;;
35418;SDS011;21525;41.240;16.500;2024-03-23T02:34:47;16.92;;;10.05;;
35418;SDS011;21525;41.240;16.500;2024-03-23T02:37:13;17.52;;;10.85;;
35418;SDS011;21525;41.240;16.500;2024-03-23T02:39:39;13.70;;;9.73;;
35418;SDS011;21525;41.240;16.500;2024-03-23T02:42:05;15.13;;;10.45;;
35418;SDS011;21525;41.240;16.500;2024-03-23T02:44:31;16.05;;;10.75;;
35418;SDS011;21525;41.240;16.500;2024-03-23T02:46:57;18.17;;;11.45;;
35418;SDS011;21525;41.240;16.500;2024-03-23T02:49:23;13.50;;;10.05;;
35418;SDS011;21525;41.240;16.500;2024-03-23T02:51:49;17.02;;;10.35;;
35418;SDS011;21525;41.240;16.500;2024-03-23T02:54:14;16.52;;;10.77;;
35418;SDS011;21525;41.240;16.500;2024-03-23T02:56:40;16.40;;;11.07;;
35418;SDS011;21525;41.240;16.500;2024-03-23T02:59:06;17.42;;;11.70;;
35418;SDS011;21525;41.240;16.500;2024-03-23T03:01:32;19.73;;;13.80;;
35418;SDS011;21525;41.240;16.500;2024-03-23T03:03:57;18.85;;;13.52;;
35418;SDS011;21525;41.240;16.500;2024-03-23T03:06:24;22.33;;;14.98;;
35418;SDS011;21525;41.240;16.500;2024-03-23T03:08:51;21.35;;;14.75;;
35418;SDS011;21525;41.240;16.500;2024-03-23T03:11:16;22.90;;;15.35;;
35418;SDS011;21525;41.240;16.500;2024-03-23T03:13:42;16.25;;;13.13;;
35418;SDS011;21525;41.240;16.500;2024-03-23T03:16:09;16.80;;;11.57;;
35418;SDS011;21525;41.240;16.500;2024-03-23T03:18:38;14.45;;;11.55;;
35418;SDS011;21525;41.240;16.500;2024-03-23T03:21:06;16.03;;;11.50;;
35418;SDS011;21525;41.240;16.500;2024-03-23T03:23:39;15.68;;;10.20;;
35418;SDS011;21525;41.240;16.500;2024-03-23T03:26:05;13.80;;;10.00;;
35418;SDS011;21525;41.240;16.500;2024-03-23T03:28:32;14.57;;;10.32;;
35418;SDS011;21525;41.240;16.500;2024-03-23T03:31:01;15.25;;;10.35;;
35418;SDS011;21525;41.240;16.500;2024-03-23T03:33:27;15.27;;;9.88;;
35418;SDS011;21525;41.240;16.500;2024-03-23T03:35:53;13.23;;;9.70;;
35418;SDS011;21525;41.240;16.500;2024-03-23T03:38:19;15.60;;;10.25;;
35418;SDS011;21525;41.240;16.500;2024-03-23T03:40:45;15.43;;;10.27;;
35418;SDS011;21525;41.240;16.500;2024-03-23T03:43:11;12.80;;;9.13;;
35418;SDS011;21525;41.240;16.500;2024-03-23T03:45:37;13.35;;;9.23;;
35418;SDS011;21525;41.240;16.500;2024-03-23T03:48:03;16.63;;;9.95;;
35418;SDS011;21525;41.240;16.500;2024-03-23T03:50:29;14.38;;;9.45;;
35418;SDS011;21525;41.240;16.500;2024-03-23T03:52:56;13.48;;;9.23;;
35418;SDS011;21525;41.240;16.500;2024-03-23T03:55:21;13.60;;;10.38;;
35418;SDS011;21525;41.240;16.500;2024-03-23T03:57:47;14.88;;;8.90;;
35418;SDS011;21525;41.240;16.500;2024-03-23T04:00:13;11.60;;;8.07;;
35418;SDS011;21525;41.240;16.500;2024-03-23T04:02:39;12.65;;;8.45;;
35418;SDS011;21525;41.240;16.500;2024-03-23T04:05:05;12.70;;;8.05;;
35418;SDS011;21525;41.240;16.500;2024-03-23T04:07:31;11.95;;;8.63;;
35418;SDS011;21525;41.240;16.500;2024-03-23T04:09:57;13.05;;;7.80;;
35418;SDS011;21525;41.240;16.500;2024-03-23T04:12:23;10.27;;;7.45;;
35418;SDS011;21525;41.240;16.500;2024-03-23T04:14:49;12.45;;;7.28;;
35418;SDS011;21525;41.240;16.500;2024-03-23T04:17:15;12.32;;;7.82;;
35418;SDS011;21525;41.240;16.500;2024-03-23T04:19:41;10.73;;;7.57;;
35418;SDS011;21525;41.240;16.500;2024-03-23T04:22:07;11.55;;;8.15;;
35418;SDS011;21525;41.240;16.500;2024-03-23T04:24:33;20.52;;;8.02;;
35418;SDS011;21525;41.240;16.500;2024-03-23T04:27:00;11.68;;;7.57;;
35418;SDS011;21525;41.240;16.500;2024-03-23T04:29:26;11.68;;;7.40;;
35418;SDS011;21525;41.240;16.500;2024-03-23T04:31:52;10.65;;;7.72;;
35418;SDS011;21525;41.240;16.500;2024-03-23T04:34:18;11.48;;;7.82;;
35418;SDS011;21525;41.240;16.500;2024-03-23T04:36:44;12.35;;;7.40;;
35418;SDS011;21525;41.240;16.500;2024-03-23T04:39:10;10.85;;;7.80;;
35418;SDS011;21525;41.240;16.500;2024-03-23T04:41:35;14.25;;;7.97;;
35418;SDS011;21525;41.240;16.500;2024-03-23T04:44:01;10.32;;;7.43;;
35418;SDS011;21525;41.240;16.500;2024-03-23T04:46:27;11.05;;;7.75;;
35418;SDS011;21525;41.240;16.500;2024-03-23T04:48:53;13.88;;;9.13;;
35418;SDS011;21525;41.240;16.500;2024-03-23T04:51:22;36.20;;;21.30;;
35418;SDS011;21525;41.240;16.500;2024-03-23T04:53:48;52.20;;;33.88;;
35418;SDS011;21525;41.240;16.500;2024-03-23T04:56:15;67.55;;;40.53;;
35418;SDS011;21525;41.240;16.500;2024-03-23T04:58:42;60.55;;;39.78;;
35418;SDS011;21525;41.240;16.500;2024-03-23T05:01:09;65.03;;;42.90;;
35418;SDS011;21525;41.240;16.500;2024-03-23T05:03:36;57.58;;;37.60;;
35418;SDS011;21525;41.240;16.500;2024-03-23T05:06:02;42.05;;;26.05;;
35418;SDS011;21525;41.240;16.500;2024-03-23T05:08:28;31.25;;;20.58;;
35418;SDS011;21525;41.240;16.500;2024-03-23T05:10:54;29.85;;;18.23;;
35418;SDS011;21525;41.240;16.500;2024-03-23T05:13:20;37.28;;;23.58;;
35418;SDS011;21525;41.240;16.500;2024-03-23T05:15:51;38.15;;;26.35;;
35418;SDS011;21525;41.240;16.500;2024-03-23T05:18:20;49.22;;;33.83;;
35418;SDS011;21525;41.240;16.500;2024-03-23T05:20:47;56.63;;;36.58;;
35418;SDS011;21525;41.240;16.500;2024-03-23T05:23:13;63.83;;;40.08;;
35418;SDS011;21525;41.240;16.500;2024-03-23T05:25:39;52.42;;;35.33;;
35418;SDS011;21525;41.240;16.500;2024-03-23T05:28:04;60.60;;;37.88;;
35418;SDS011;21525;41.240;16.500;2024-03-23T05:30:30;52.60;;;35.10;;
35418;SDS011;21525;41.240;16.500;2024-03-23T05:32:56;69.18;;;43.95;;
35418;SDS011;21525;41.240;16.500;2024-03-23T05:35:22;77.15;;;47.85;;
35418;SDS011;21525;41.240;16.500;2024-03-23T05:37:48;73.68;;;47.25;;
35418;SDS011;21525;41.240;16.500;2024-03-23T05:40:14;70.07;;;43.15;;
35418;SDS011;21525;41.240;16.500;2024-03-23T05:42:40;71.65;;;47.55;;
35418;SDS011;21525;41.240;16.500;2024-03-23T05:45:06;76.65;;;52.47;;
35418;SDS011;21525;41.240;16.500;2024-03-23T05:47:33;87.60;;;56.85;;
35418;SDS011;21525;41.240;16.500;2024-03-23T05:49:59;67.70;;;47.35;;
35418;SDS011;21525;41.240;16.500;2024-03-23T05:52:25;64.60;;;44.22;;
35418;SDS011;21525;41.240;16.500;2024-03-23T05:54:51;55.67;;;38.22;;
35418;SDS011;21525;41.240;16.500;2024-03-23T05:57:17;45.60;;;30.88;;
35418;SDS011;21525;41.240;16.500;2024-03-23T05:59:44;40.25;;;27.10;;
35418;SDS011;21525;41.240;16.500;2024-03-23T06:02:10;31.77;;;20.20;;
35418;SDS011;21525;41.240;16.500;2024-03-23T06:04:36;33.88;;;20.38;;
35418;SDS011;21525;41.240;16.500;2024-03-23T06:07:02;26.50;;;19.55;;
35418;SDS011;21525;41.240;16.500;2024-03-23T06:09:31;39.67;;;22.67;;
35418;SDS011;21525;41.240;16.500;2024-03-23T06:11:57;29.52;;;22.98;;
35418;SDS011;21525;41.240;16.500;2024-03-23T06:14:23;33.35;;;25.70;;
35418;SDS011;21525;41.240;16.500;2024-03-23T06:16:48;32.15;;;24.38;;
35418;SDS011;21525;41.240;16.500;2024-03-23T06:19:14;35.70;;;25.48;;
35418;SDS011;21525;41.240;16.500;2024-03-23T06:21:43;28.83;;;24.27;;
35418;SDS011;21525;41.240;16.500;2024-03-23T06:24:10;28.20;;;24.02;;
35418;SDS011;21525;41.240;16.500;2024-03-23T06:26:37;26.85;;;23.63;;
35418;SDS011;21525;41.240;16.500;2024-03-23T06:29:04;33.47;;;25.95;;
35418;SDS011;21525;41.240;16.500;2024-03-23T06:31:30;31.10;;;27.30;;
35418;SDS011;21525;41.240;16.500;2024-03-23T06:33:56;36.53;;;27.48;;
35418;SDS011;21525;41.240;16.500;2024-03-23T06:36:22;34.28;;;26.63;;
35418;SDS011;21525;41.240;16.500;2024-03-23T06:38:48;31.73;;;27.70;;
35418;SDS011;21525;41.240;16.500;2024-03-23T06:41:14;30.73;;;25.02;;
35418;SDS011;21525;41.240;16.500;2024-03-23T06:43:40;35.90;;;27.52;;
35418;SDS011;21525;41.240;16.500;2024-03-23T06:46:06;33.78;;;29.52;;
35418;SDS011;21525;41.240;16.500;2024-03-23T06:48:31;43.33;;;34.90;;
35418;SDS011;21525;41.240;16.500;2024-03-23T06:50:57;45.97;;;37.17;;
35418;SDS011;21525;41.240;16.500;2024-03-23T06:53:23;43.25;;;34.30;;
35418;SDS011;21525;41.240;16.500;2024-03-23T06:55:53;40.15;;;34.65;;
35418;SDS011;21525;41.240;16.500;2024-03-23T06:58:23;37.97;;;32.05;;
35418;SDS011;21525;41.240;16.500;2024-03-23T07:00:50;37.25;;;29.45;;
35418;SDS011;21525;41.240;16.500;2024-03-23T07:03:16;42.45;;;33.25;;
35418;SDS011;21525;41.240;16.500;2024-03-23T07:05:42;40.45;;;33.70;;
35418;SDS011;21525;41.240;16.500;2024-03-23T07:08:08;33.95;;;29.08;;
35418;SDS011;21525;41.240;16.500;2024-03-23T07:10:34;34.60;;;27.48;;
35418;SDS011;21525;41.240;16.500;2024-03-23T07:13:01;34.72;;;28.65;;
35418;SDS011;21525;41.240;16.500;2024-03-23T07:15:27;35.30;;;30.20;;
35418;SDS011;21525;41.240;16.500;2024-03-23T07:17:52;35.67;;;28.70;;
35418;SDS011;21525;41.240;16.500;2024-03-23T07:24:27;35.92;;;29.15;;
35418;SDS011;21525;41.240;16.500;2024-03-23T07:26:53;33.55;;;27.33;;
35418;SDS011;21525;41.240;16.500;2024-03-23T07:29:19;31.42;;;26.05;;
35418;SDS011;21525;41.240;16.500;2024-03-23T07:31:45;27.00;;;23.88;;
35418;SDS011;21525;41.240;16.500;2024-03-23T07:34:11;24.92;;;22.25;;
35418;SDS011;21525;41.240;16.500;2024-03-23T07:36:36;26.25;;;22.00;;
35418;SDS011;21525;41.240;16.500;2024-03-23T07:39:02;30.58;;;23.70;;
35418;SDS011;21525;41.240;16.500;2024-03-23T07:41:29;28.40;;;24.98;;
35418;SDS011;21525;41.240;16.500;2024-03-23T07:43:56;31.05;;;25.67;;
35418;SDS011;21525;41.240;16.500;2024-03-23T07:46:21;24.88;;;20.02;;
35418;SDS011;21525;41.240;16.500;2024-03-23T07:48:47;23.50;;;17.80;;
35418;SDS011;21525;41.240;16.500;2024-03-23T07:51:18;37.35;;;28.50;;
35418;SDS011;21525;41.240;16.500;2024-03-23T07:53:46;42.92;;;32.65;;
35418;SDS011;21525;41.240;16.500;2024-03-23T07:56:15;43.20;;;33.72;;
35418;SDS011;21525;41.240;16.500;2024-03-23T07:58:43;40.88;;;34.92;;
35418;SDS011;21525;41.240;16.500;2024-03-23T08:01:10;44.65;;;34.85;;
35418;SDS011;21525;41.240;16.500;2024-03-23T08:03:43;89.10;;;38.00;;
35418;SDS011;21525;41.240;16.500;2024-03-23T08:06:16;65.20;;;36.00;;
35418;SDS011;21525;41.240;16.500;2024-03-23T08:08:44;44.72;;;34.28;;
35418;SDS011;21525;41.240;16.500;2024-03-23T08:11:11;36.17;;;30.53;;
35418;SDS011;21525;41.240;16.500;2024-03-23T08:13:38;38.78;;;28.52;;
35418;SDS011;21525;41.240;16.500;2024-03-23T08:16:05;37.50;;;31.02;;
35418;SDS011;21525;41.240;16.500;2024-03-23T08:18:31;46.25;;;35.03;;
35418;SDS011;21525;41.240;16.500;2024-03-23T08:21:01;55.40;;;42.78;;
35418;SDS011;21525;41.240;16.500;2024-03-23T08:23:28;79.05;;;48.13;;
35418;SDS011;21525;41.240;16.500;2024-03-23T08:25:58;66.20;;;46.28;;
35418;SDS011;21525;41.240;16.500;2024-03-23T08:28:24;60.47;;;43.20;;
35418;SDS011;21525;41.240;16.500;2024-03-23T08:30:51;69.65;;;44.28;;
35418;SDS011;21525;41.240;16.500;2024-03-23T08:33:17;61.55;;;40.22;;
35418;SDS011;21525;41.240;16.500;2024-03-23T08:35:48;46.33;;;36.35;;
35418;SDS011;21525;41.240;16.500;2024-03-23T08:38:27;48.72;;;35.35;;
35418;SDS011;21525;41.240;16.500;2024-03-23T08:41:01;40.90;;;31.10;;
35418;SDS011;21525;41.240;16.500;2024-03-23T08:43:29;36.47;;;29.02;;
35418;SDS011;21525;41.240;16.500;2024-03-23T08:46:16;39.20;;;26.13;;
35418;SDS011;21525;41.240;16.500;2024-03-23T08:48:42;32.40;;;22.85;;
35418;SDS011;21525;41.240;16.500;2024-03-23T08:51:14;29.80;;;22.20;;
35418;SDS011;21525;41.240;16.500;2024-03-23T08:53:42;26.67;;;21.23;;
35418;SDS011;21525;41.240;16.500;2024-03-23T08:56:09;42.13;;;24.17;;
35418;SDS011;21525;41.240;16.500;2024-03-23T08:58:36;26.92;;;21.13;;
35418;SDS011;21525;41.240;16.500;2024-03-23T09:01:04;45.17;;;24.30;;
35418;SDS011;21525;41.240;16.500;2024-03-23T09:03:40;27.88;;;22.17;;
35418;SDS011;21525;41.240;16.500;2024-03-23T09:06:07;27.90;;;19.80;;
35418;SDS011;21525;41.240;16.500;2024-03-23T09:08:34;26.25;;;19.73;;
35418;SDS011;21525;41.240;16.500;2024-03-23T09:11:08;29.98;;;22.63;;
35418;SDS011;21525;41.240;16.500;2024-03-23T09:13:35;27.15;;;20.33;;
35418;SDS011;21525;41.240;16.500;2024-03-23T09:16:02;22.30;;;16.85;;
35418;SDS011;21525;41.240;16.500;2024-03-23T09:18:34;30.60;;;18.17;;
35418;SDS011;21525;41.240;16.500;2024-03-23T09:21:01;21.90;;;16.67;;
35418;SDS011;21525;41.240;16.500;2024-03-23T09:23:27;17.80;;;13.32;;
35418;SDS011;21525;41.240;16.500;2024-03-23T09:25:53;17.10;;;12.52;;
35418;SDS011;21525;41.240;16.500;2024-03-23T09:28:19;15.73;;;11.32;;
35418;SDS011;21525;41.240;16.500;2024-03-23T09:30:45;17.23;;;12.10;;
35418;SDS011;21525;41.240;16.500;2024-03-23T09:33:11;14.88;;;10.95;;
35418;SDS011;21525;41.240;16.500;2024-03-23T09:35:41;22.92;;;17.13;;
35418;SDS011;21525;41.240;16.500;2024-03-23T09:38:08;18.70;;;14.23;;
35418;SDS011;21525;41.240;16.500;2024-03-23T09:40:34;18.40;;;14.50;;
35418;SDS011;21525;41.240;16.500;2024-03-23T09:43:06;21.40;;;16.38;;
35418;SDS011;21525;41.240;16.500;2024-03-23T09:45:32;19.63;;;14.52;;
35418;SDS011;21525;41.240;16.500;2024-03-23T09:48:01;20.00;;;14.80;;
35418;SDS011;21525;41.240;16.500;2024-03-23T09:50:27;17.75;;;12.95;;
35418;SDS011;21525;41.240;16.500;2024-03-23T09:52:53;23.85;;;18.00;;
35418;SDS011;21525;41.240;16.500;2024-03-23T09:55:18;22.52;;;16.70;;
35418;SDS011;21525;41.240;16.500;2024-03-23T09:57:44;21.40;;;16.35;;
35418;SDS011;21525;41.240;16.500;2024-03-23T10:00:10;15.48;;;9.95;;
35418;SDS011;21525;41.240;16.500;2024-03-23T10:02:37;14.95;;;11.07;;
35418;SDS011;21525;41.240;16.500;2024-03-23T10:05:03;10.60;;;7.22;;
35418;SDS011;21525;41.240;16.500;2024-03-23T10:07:30;14.10;;;11.13;;
35418;SDS011;21525;41.240;16.500;2024-03-23T10:09:56;17.33;;;12.75;;
35418;SDS011;21525;41.240;16.500;2024-03-23T10:12:23;20.20;;;14.48;;
35418;SDS011;21525;41.240;16.500;2024-03-23T10:14:50;20.77;;;15.77;;
35418;SDS011;21525;41.240;16.500;2024-03-23T10:17:22;19.50;;;15.07;;
35418;SDS011;21525;41.240;16.500;2024-03-23T10:19:51;19.90;;;14.70;;
35418;SDS011;21525;41.240;16.500;2024-03-23T10:22:18;21.27;;;15.82;;
35418;SDS011;21525;41.240;16.500;2024-03-23T10:24:45;21.17;;;15.20;;
35418;SDS011;21525;41.240;16.500;2024-03-23T10:27:18;17.85;;;12.80;;
35418;SDS011;21525;41.240;16.500;2024-03-23T10:29:45;13.27;;;9.90;;
35418;SDS011;21525;41.240;16.500;2024-03-23T10:32:13;16.58;;;10.48;;
35418;SDS011;21525;41.240;16.500;2024-03-23T10:34:39;15.52;;;8.13;;
35418;SDS011;21525;41.240;16.500;2024-03-23T10:37:06;13.45;;;8.52;;
35418;SDS011;21525;41.240;16.500;2024-03-23T10:39:33;10.07;;;6.40;;
35418;SDS011;21525;41.240;16.500;2024-03-23T10:42:05;8.95;;;5.35;;
35418;SDS011;21525;41.240;16.500;2024-03-23T10:44:36;7.55;;;5.70;;
35418;SDS011;21525;41.240;16.500;2024-03-23T10:47:04;11.88;;;6.03;;
35418;SDS011;21525;41.240;16.500;2024-03-23T10:49:33;9.25;;;6.10;;
35418;SDS011;21525;41.240;16.500;2024-03-23T10:54:27;9.20;;;6.28;;
35418;SDS011;21525;41.240;16.500;2024-03-23T10:57:15;9.48;;;6.97;;
35418;SDS011;21525;41.240;16.500;2024-03-23T11:00:01;9.68;;;6.45;;
35418;SDS011;21525;41.240;16.500;2024-03-23T11:02:29;9.02;;;6.50;;
35418;SDS011;21525;41.240;16.500;2024-03-23T11:04:55;8.80;;;6.20;;
35418;SDS011;21525;41.240;16.500;2024-03-23T11:09:50;10.68;;;6.93;;
35418;SDS011;21525;41.240;16.500;2024-03-23T11:14:53;8.05;;;5.72;;
35418;SDS011;21525;41.240;16.500;2024-03-23T11:17:21;10.68;;;6.78;;
35418;SDS011;21525;41.240;16.500;2024-03-23T11:19:55;10.98;;;6.00;;
35418;SDS011;21525;41.240;16.500;2024-03-23T11:25:20;9.88;;;5.13;;
35418;SDS011;21525;41.240;16.500;2024-03-23T11:27:46;9.35;;;6.15;;
35418;SDS011;21525;41.240;16.500;2024-03-23T11:30:14;10.68;;;6.30;;
35418;SDS011;21525;41.240;16.500;2024-03-23T11:32:45;10.07;;;6.72;;
35418;SDS011;21525;41.240;16.500;2024-03-23T11:35:24;11.20;;;7.80;;
35418;SDS011;21525;41.240;16.500;2024-03-23T11:38:07;11.88;;;7.93;;
35418;SDS011;21525;41.240;16.500;2024-03-23T11:40:44;13.27;;;7.38;;
35418;SDS011;21525;41.240;16.500;2024-03-23T11:43:15;11.45;;;8.35;;
35418;SDS011;21525;41.240;16.500;2024-03-23T11:45:46;10.57;;;6.97;;
35418;SDS011;21525;41.240;16.500;2024-03-23T11:48:14;10.02;;;6.90;;
35418;SDS011;21525;41.240;16.500;2024-03-23T11:50:43;8.98;;;6.50;;
35418;SDS011;21525;41.240;16.500;2024-03-23T11:53:17;9.32;;;6.07;;
35418;SDS011;21525;41.240;16.500;2024-03-23T11:55:48;11.70;;;7.10;;
35418;SDS011;21525;41.240;16.500;2024-03-23T11:58:16;11.00;;;7.47;;
35418;SDS011;21525;41.240;16.500;2024-03-23T12:00:49;10.35;;;7.18;;
35418;SDS011;21525;41.240;16.500;2024-03-23T12:03:21;9.70;;;6.80;;
35418;SDS011;21525;41.240;16.500;2024-03-23T12:05:51;10.38;;;7.32;;
35418;SDS011;21525;41.240;16.500;2024-03-23T12:11:13;14.10;;;7.68;;
35418;SDS011;21525;41.240;16.500;2024-03-23T12:13:41;11.88;;;7.38;;
35418;SDS011;21525;41.240;16.500;2024-03-23T12:18:47;12.52;;;7.63;;
35418;SDS011;21525;41.240;16.500;2024-03-23T12:21:15;12.70;;;8.02;;
35418;SDS011;21525;41.240;16.500;2024-03-23T12:23:42;18.73;;;8.82;;
35418;SDS011;21525;41.240;16.500;2024-03-23T12:26:10;95.70;;;33.50;;
35418;SDS011;21525;41.240;16.500;2024-03-23T12:28:37;11.80;;;7.10;;
35418;SDS011;21525;41.240;16.500;2024-03-23T12:31:04;13.68;;;7.35;;
35418;SDS011;21525;41.240;16.500;2024-03-23T12:33:31;11.63;;;6.93;;
35418;SDS011;21525;41.240;16.500;2024-03-23T12:35:56;11.88;;;6.53;;
35418;SDS011;21525;41.240;16.500;2024-03-23T12:38:22;11.75;;;6.90;;
35418;SDS011;21525;41.240;16.500;2024-03-23T12:40:48;10.40;;;6.78;;
35418;SDS011;21525;41.240;16.500;2024-03-23T12:43:17;13.77;;;6.50;;
35418;SDS011;21525;41.240;16.500;2024-03-23T12:45:47;11.98;;;6.63;;
35418;SDS011;21525;41.240;16.500;2024-03-23T12:48:13;10.88;;;6.43;;
35418;SDS011;21525;41.240;16.500;2024-03-23T12:50:39;8.60;;;5.53;;
35418;SDS011;21525;41.240;16.500;2024-03-23T12:53:05;12.73;;;6.07;;
35418;SDS011;21525;41.240;16.500;2024-03-23T12:55:30;8.52;;;5.85;;
35418;SDS011;21525;41.240;16.500;2024-03-23T12:57:57;11.95;;;7.15;;
35418;SDS011;21525;41.240;16.500;2024-03-23T13:00:22;10.15;;;6.80;;
35418;SDS011;21525;41.240;16.500;2024-03-23T13:02:48;10.77;;;7.28;;
35418;SDS011;21525;41.240;16.500;2024-03-23T13:05:14;9.98;;;6.53;;
35418;SDS011;21525;41.240;16.500;2024-03-23T13:07:40;14.05;;;6.85;;
35418;SDS011;21525;41.240;16.500;2024-03-23T13:10:06;11.75;;;6.90;;
35418;SDS011;21525;41.240;16.500;2024-03-23T13:12:33;10.38;;;6.78;;
35418;SDS011;21525;41.240;16.500;2024-03-23T13:14:59;11.85;;;7.68;;
35418;SDS011;21525;41.240;16.500;2024-03-23T13:17:26;13.02;;;6.80;;
35418;SDS011;21525;41.240;16.500;2024-03-23T13:19:55;12.43;;;6.82;;
35418;SDS011;21525;41.240;16.500;2024-03-23T13:22:23;14.88;;;6.28;;
35418;SDS011;21525;41.240;16.500;2024-03-23T13:24:49;9.73;;;5.53;;
35418;SDS011;21525;41.240;16.500;2024-03-23T13:27:15;10.82;;;6.25;;
35418;SDS011;21525;41.240;16.500;2024-03-23T13:29:41;13.48;;;5.57;;
35418;SDS011;21525;41.240;16.500;2024-03-23T13:32:07;9.43;;;5.53;;
35418;SDS011;21525;41.240;16.500;2024-03-23T13:34:34;8.15;;;5.45;;
35418;SDS011;21525;41.240;16.500;2024-03-23T13:37:00;10.27;;;5.75;;
35418;SDS011;21525;41.240;16.500;2024-03-23T13:39:26;10.82;;;5.70;;
35418;SDS011;21525;41.240;16.500;2024-03-23T13:44:21;11.40;;;5.97;;
35418;SDS011;21525;41.240;16.500;2024-03-23T13:46:47;10.75;;;5.82;;
35418;SDS011;21525;41.240;16.500;2024-03-23T13:54:22;12.93;;;7.15;;
35418;SDS011;21525;41.240;16.500;2024-03-23T13:56:50;12.35;;;6.45;;
35418;SDS011;21525;41.240;16.500;2024-03-23T13:59:17;11.68;;;6.03;;
35418;SDS011;21525;41.240;16.500;2024-03-23T14:01:43;10.93;;;5.43;;
35418;SDS011;21525;41.240;16.500;2024-03-23T14:04:12;9.40;;;5.57;;
35418;SDS011;21525;41.240;16.500;2024-03-23T14:06:38;9.85;;;5.75;;
35418;SDS011;21525;41.240;16.500;2024-03-23T14:09:05;10.07;;;6.05;;
35418;SDS011;21525;41.240;16.500;2024-03-23T14:11:36;10.95;;;5.80;;
35418;SDS011;21525;41.240;16.500;2024-03-23T14:14:02;11.15;;;5.60;;
35418;SDS011;21525;41.240;16.500;2024-03-23T14:16:29;11.55;;;5.88;;
35418;SDS011;21525;41.240;16.500;2024-03-23T14:18:56;11.30;;;5.68;;
35418;SDS011;21525;41.240;16.500;2024-03-23T14:21:22;11.30;;;5.57;;
35418;SDS011;21525;41.240;16.500;2024-03-23T14:23:48;10.63;;;5.78;;
35418;SDS011;21525;41.240;16.500;2024-03-23T14:26:13;12.13;;;6.20;;
35418;SDS011;21525;41.240;16.500;2024-03-23T14:28:39;10.95;;;6.10;;
35418;SDS011;21525;41.240;16.500;2024-03-23T14:31:06;12.85;;;6.22;;
35418;SDS011;21525;41.240;16.500;2024-03-23T14:33:36;13.68;;;6.03;;
35418;SDS011;21525;41.240;16.500;2024-03-23T14:36:03;11.95;;;5.45;;
35418;SDS011;21525;41.240;16.500;2024-03-23T14:38:30;11.13;;;5.32;;
35418;SDS011;21525;41.240;16.500;2024-03-23T14:41:01;15.38;;;5.35;;
35418;SDS011;21525;41.240;16.500;2024-03-23T14:43:29;12.57;;;5.55;;
35418;SDS011;21525;41.240;16.500;2024-03-23T14:48:38;10.63;;;5.15;;
35418;SDS011;21525;41.240;16.500;2024-03-23T14:51:05;12.95;;;4.88;;
35418;SDS011;21525;41.240;16.500;2024-03-23T14:53:32;13.27;;;5.63;;
35418;SDS011;21525;41.240;16.500;2024-03-23T14:56:02;10.38;;;5.18;;
35418;SDS011;21525;41.240;16.500;2024-03-23T14:58:28;11.00;;;5.32;;
35418;SDS011;21525;41.240;16.500;2024-03-23T15:01:01;9.40;;;5.75;;
35418;SDS011;21525;41.240;16.500;2024-03-23T15:03:28;10.88;;;4.90;;
35418;SDS011;21525;41.240;16.500;2024-03-23T15:05:54;12.07;;;5.47;;
35418;SDS011;21525;41.240;16.500;2024-03-23T15:08:21;12.82;;;6.18;;
35418;SDS011;21525;41.240;16.500;2024-03-23T15:10:47;13.68;;;6.30;;
35418;SDS011;21525;41.240;16.500;2024-03-23T15:13:13;14.65;;;5.55;;
35418;SDS011;21525;41.240;16.500;2024-03-23T15:15:43;11.27;;;5.50;;
35418;SDS011;21525;41.240;16.500;2024-03-23T15:18:13;11.10;;;5.28;;
35418;SDS011;21525;41.240;16.500;2024-03-23T15:21:00;13.05;;;5.30;;
35418;SDS011;21525;41.240;16.500;2024-03-23T15:23:34;11.23;;;5.20;;
35418;SDS011;21525;41.240;16.500;2024-03-23T15:26:01;14.25;;;5.97;;
35418;SDS011;21525;41.240;16.500;2024-03-23T15:28:28;11.52;;;5.03;;
35418;SDS011;21525;41.240;16.500;2024-03-23T15:31:04;12.30;;;5.35;;
35418;SDS011;21525;41.240;16.500;2024-03-23T15:33:31;11.50;;;5.32;;
35418;SDS011;21525;41.240;16.500;2024-03-23T15:35:58;13.23;;;5.50;;
35418;SDS011;21525;41.240;16.500;2024-03-23T15:38:24;11.50;;;5.35;;